Time;durP1;ratioP1;P1;durP2;ratioP2;P2;SDS_P1;SDS_P2;PMS_P1;PMS_P2;Temp;Humidity;BMP_temperature;BMP_pressure;BME280_temperature;BME280_humidity;BME280_pressure;Samples;Min_cycle;Max_cycle;Signal;HPM_P1;HPM_P2
2023/04/27 00:01:14;;;;;;;;;;;;;;;12.86;72.61;101926.75;5072959;28;19921;-54
2023/04/27 00:03:40;;;;;;;;;;;;;;;12.73;73.03;101933.59;5073149;28;19928;-51
2023/04/27 00:06:07;;;;;;;;;;;;;;;12.79;72.67;101941.94;5072911;28;19916;-48
2023/04/27 00:08:32;;;;;;;;;;;;;;;12.78;72.83;101943.78;5073061;28;19963;-56
2023/04/27 00:10:58;;;;;;;;;;;;;;;12.80;72.80;101933.72;5072507;28;20299;-49
2023/04/27 00:13:23;;;;;;;;;;;;;;;12.85;72.37;101942.03;5073085;28;19921;-54
2023/04/27 00:15:49;;;;;;;;;;;;;;;12.81;71.77;101934.53;5073149;28;19975;-54
2023/04/27 00:18:14;;;;;;;;;;;;;;;12.69;72.42;101937.69;5072674;28;19924;-56
2023/04/27 00:20:40;;;;;;;;;;;;;;;12.79;72.07;101937.38;5073337;28;19921;-51
2023/04/27 00:23:06;;;;;;;;;;;;;;;12.53;73.15;101937.81;5072535;28;19984;-52
2023/04/27 00:25:32;;;;;;;;;;;;;;;12.55;73.16;101946.53;5072639;28;19916;-53
2023/04/27 00:27:57;;;;;;;;;;;;;;;12.69;72.97;101937.69;5071462;28;20005;-50
2023/04/27 00:30:23;;;;;;;;;;;;;;;12.68;72.60;101940.53;5070946;28;20929;-54
2023/04/27 00:32:48;;;;;;;;;;;;;;;12.69;72.47;101943.03;5072627;28;19914;-49
2023/04/27 00:35:15;;;;;;;;;;;;;;;12.70;72.56;101939.34;5067552;28;19917;-48
2023/04/27 00:37:40;;;;;;;;;;;;;;;12.61;73.14;101946.63;5072430;28;19944;-54
2023/04/27 00:40:06;;;;;;;;;;;;;;;12.61;72.92;101943.94;5071504;28;19928;-52
2023/04/27 00:42:32;;;;;;;;;;;;;;;12.56;72.92;101938.28;5072226;28;19980;-52
2023/04/27 00:44:58;;;;;;;;;;;;;;;12.58;73.10;101941.63;5071765;28;19916;-53
2023/04/27 00:47:23;;;;;;;;;;;;;;;12.56;73.57;101942.81;5071987;28;19916;-51
2023/04/27 00:49:49;;;;;;;;;;;;;;;12.43;73.41;101940.75;5071239;28;19920;-52
2023/04/27 00:52:14;;;;;;;;;;;;;;;12.39;73.99;101940.28;5072494;28;19921;-50
2023/04/27 00:54:41;;;;;;;;;;;;;;;12.18;74.70;101939.09;5071094;28;19955;-49
2023/04/27 00:57:07;;;;;;;;;;;;;;;12.19;74.84;101937.25;5072835;28;19924;-48
2023/04/27 00:59:33;;;;;;;;;;;;;;;12.15;74.73;101934.09;5072631;28;19963;-50
2023/04/27 01:02:00;;;;;;;;;;;;;;;12.08;74.98;101935.81;5072262;28;19920;-51
2023/04/27 01:04:25;;;;;;;;;;;;;;;12.13;74.91;101928.06;5071967;28;19932;-49
2023/04/27 01:06:51;;;;;;;;;;;;;;;12.26;74.48;101929.34;5072642;28;19921;-52
2023/04/27 01:09:18;;;;;;;;;;;;;;;12.27;74.58;101925.63;5072700;28;19966;-54
2023/04/27 01:11:44;;;;;;;;;;;;;;;12.23;74.35;101924.34;5070959;28;19917;-50
2023/04/27 01:14:10;;;;;;;;;;;;;;;12.22;74.53;101922.63;5072003;28;19913;-53
2023/04/27 01:16:36;;;;;;;;;;;;;;;12.11;75.13;101919.38;5070251;28;19948;-53
2023/04/27 01:19:01;;;;;;;;;;;;;;;12.08;75.24;101919.75;5071353;28;19952;-51
2023/04/27 01:21:27;;;;;;;;;;;;;;;12.17;75.03;101918.66;5070380;28;19916;-54
2023/04/27 01:23:53;;;;;;;;;;;;;;;11.98;76.05;101913.72;5069064;28;19976;-51
2023/04/27 01:26:18;;;;;;;;;;;;;;;12.09;76.32;101917.88;5070832;28;20618;-50
2023/04/27 01:28:43;;;;;;;;;;;;;;;12.02;76.56;101926.63;5069321;28;19947;-52
2023/04/27 01:31:10;;;;;;;;;;;;;;;11.96;77.90;101929.16;5069734;28;19931;-51
2023/04/27 01:33:35;;;;;;;;;;;;;;;11.95;78.17;101922.13;5071495;28;19928;-53
2023/04/27 01:36:00;;;;;;;;;;;;;;;12.02;78.32;101925.81;5068917;28;19980;-54
2023/04/27 01:38:26;;;;;;;;;;;;;;;11.99;78.50;101926.13;5069718;28;20073;-51
2023/04/27 01:40:54;;;;;;;;;;;;;;;11.96;79.21;101924.66;5071102;28;19929;-52
2023/04/27 01:43:19;;;;;;;;;;;;;;;11.85;79.78;101923.22;5072772;28;19921;-53
2023/04/27 01:45:45;;;;;;;;;;;;;;;11.96;79.28;101918.44;5071406;28;20302;-51
2023/04/27 01:48:10;;;;;;;;;;;;;;;11.94;79.08;101917.78;5072986;28;19924;-53
2023/04/27 01:50:36;;;;;;;;;;;;;;;12.03;79.17;101906.84;5073730;28;19917;-55
2023/04/27 01:53:02;;;;;;;;;;;;;;;11.83;79.78;101906.47;5074751;28;19931;-50
2023/04/27 01:55:27;;;;;;;;;;;;;;;11.78;81.12;101903.50;5074783;28;19935;-52
2023/04/27 01:57:53;;;;;;;;;;;;;;;11.87;80.26;101907.78;5074387;28;19928;-53
2023/04/27 02:00:18;;;;;;;;;;;;;;;11.82;80.53;101901.28;5073946;28;19929;-52
2023/04/27 02:02:46;;;;;;;;;;;;;;;11.83;81.75;101902.94;5075473;28;19943;-52
2023/04/27 02:05:12;;;;;;;;;;;;;;;11.89;81.90;101905.75;5074356;28;19925;-54
2023/04/27 02:07:37;;;;;;;;;;;;;;;11.93;81.70;101902.72;5075559;28;19928;-51
2023/04/27 02:10:05;;;;;;;;;;;;;;;11.84;82.65;101900.09;5075124;28;20786;-51
2023/04/27 02:12:32;;;;;;;;;;;;;;;11.89;82.71;101896.91;5074612;28;19956;-54
2023/04/27 02:14:58;;;;;;;;;;;;;;;11.90;82.08;101899.38;5060498;28;19943;-51
2023/04/27 02:17:24;;;;;;;;;;;;;;;11.74;84.88;101896.78;5074805;28;19917;-52
2023/04/27 02:19:49;;;;;;;;;;;;;;;11.88;84.16;101908.63;5072930;28;19952;-54
2023/04/27 02:22:15;;;;;;;;;;;;;;;11.86;85.64;101902.59;5074508;28;19920;-52
2023/04/27 02:24:40;;;;;;;;;;;;;;;11.90;86.76;101899.38;5074601;28;19932;-57
2023/04/27 02:27:06;;;;;;;;;;;;;;;11.88;86.93;101904.09;5075376;28;19976;-53
2023/04/27 02:29:31;;;;;;;;;;;;;;;11.86;87.78;101902.59;5075206;28;19924;-51
2023/04/27 02:31:57;;;;;;;;;;;;;;;11.68;89.53;101897.50;5073906;28;19996;-51
2023/04/27 02:34:22;;;;;;;;;;;;;;;11.82;88.88;101894.09;5073752;28;19917;-53
2023/04/27 02:36:48;;;;;;;;;;;;;;;11.84;88.86;101897.41;5074401;28;19928;-51
2023/04/27 02:39:13;;;;;;;;;;;;;;;11.78;88.55;101892.78;5073484;28;19929;-51
2023/04/27 02:41:38;;;;;;;;;;;;;;;11.81;88.26;101888.88;5073926;28;19920;-50
2023/04/27 02:44:04;;;;;;;;;;;;;;;11.81;87.51;101892.41;5073719;28;19960;-51
2023/04/27 02:46:29;;;;;;;;;;;;;;;11.50;87.82;101885.22;5073966;28;19928;-54
2023/04/27 02:48:55;;;;;;;;;;;;;;;11.35;89.21;101887.00;5074572;28;19920;-52
2023/04/27 02:51:22;;;;;;;;;;;;;;;11.42;88.09;101888.78;5074743;28;19917;-50
2023/04/27 02:53:47;;;;;;;;;;;;;;;11.41;88.86;101887.09;5061602;28;19926;-52
2023/04/27 02:56:13;;;;;;;;;;;;;;;11.42;88.96;101883.44;5054449;28;19917;-50
2023/04/27 02:58:38;;;;;;;;;;;;;;;11.43;88.55;101889.63;5051578;28;19917;-52
2023/04/27 03:01:05;;;;;;;;;;;;;;;11.36;88.78;101899.38;5036679;28;20216;-54
2023/04/27 03:03:31;;;;;;;;;;;;;;;11.33;89.05;101890.69;5053016;28;19924;-51
2023/04/27 03:05:56;;;;;;;;;;;;;;;11.46;88.08;101894.63;5054518;28;19917;-52
2023/04/27 03:08:21;;;;;;;;;;;;;;;11.44;88.31;101897.50;5036928;28;19921;-51
2023/04/27 03:10:47;;;;;;;;;;;;;;;11.49;88.05;101891.59;5053597;28;19917;-50
2023/04/27 03:13:13;;;;;;;;;;;;;;;11.42;88.28;101890.63;5037092;28;19917;-51
2023/04/27 03:15:39;;;;;;;;;;;;;;;11.48;88.08;101889.91;5054053;28;19921;-52
2023/04/27 03:18:05;;;;;;;;;;;;;;;11.56;87.23;101895.25;5054171;28;19924;-52
2023/04/27 03:20:30;;;;;;;;;;;;;;;11.42;87.85;101893.31;5036968;28;19921;-51
2023/04/27 03:22:56;;;;;;;;;;;;;;;11.51;87.52;101896.78;5054175;28;19939;-50
2023/04/27 03:25:22;;;;;;;;;;;;;;;11.31;88.00;101900.72;5054093;28;19940;-48
2023/04/27 03:27:47;;;;;;;;;;;;;;;11.36;87.90;101904.72;5036669;28;20005;-49
2023/04/27 03:30:13;;;;;;;;;;;;;;;11.40;87.17;101901.50;5054234;28;20719;-52
2023/04/27 03:32:38;;;;;;;;;;;;;;;11.37;87.68;101901.84;5037024;28;19924;-52
2023/04/27 03:35:04;;;;;;;;;;;;;;;11.36;87.89;101905.53;5036704;28;19917;-56
2023/04/27 03:37:30;;;;;;;;;;;;;;;11.39;87.32;101904.38;5053683;28;19928;-49
2023/04/27 03:39:56;;;;;;;;;;;;;;;11.32;87.68;101906.91;5053512;28;19985;-51
2023/04/27 03:42:21;;;;;;;;;;;;;;;11.17;88.22;101904.94;5036778;28;19974;-54
2023/04/27 03:44:48;;;;;;;;;;;;;;;11.37;87.41;101906.41;5036676;28;19917;-51
2023/04/27 03:47:13;;;;;;;;;;;;;;;11.27;87.75;101910.09;5036576;28;19924;-54
2023/04/27 03:49:40;;;;;;;;;;;;;;;11.17;89.48;101912.16;5035928;28;19928;-49
2023/04/27 03:52:06;;;;;;;;;;;;;;;11.25;88.53;101901.41;5036595;28;19917;-52
2023/04/27 03:54:33;;;;;;;;;;;;;;;11.04;89.87;101904.69;5048037;28;19926;-50
2023/04/27 03:56:58;;;;;;;;;;;;;;;11.03;90.92;101906.50;5050534;28;19928;-51
2023/04/27 03:59:24;;;;;;;;;;;;;;;11.04;91.04;101907.34;5037303;28;19944;-50
2023/04/27 04:01:50;;;;;;;;;;;;;;;11.11;90.92;101902.97;5052939;28;19944;-53
2023/04/27 04:04:16;;;;;;;;;;;;;;;11.02;92.09;101918.22;5037758;28;20663;-50
2023/04/27 04:06:41;;;;;;;;;;;;;;;11.11;91.30;101913.69;5052356;28;20058;-52
2023/04/27 04:09:06;;;;;;;;;;;;;;;11.04;91.88;101908.16;5053381;28;19917;-53
2023/04/27 04:11:32;;;;;;;;;;;;;;;11.09;91.63;101910.34;5052926;28;19918;-49
2023/04/27 04:13:59;;;;;;;;;;;;;;;10.96;93.51;101907.38;5036365;28;19917;-50
2023/04/27 04:16:25;;;;;;;;;;;;;;;11.04;93.69;101921.56;5036442;28;20014;-49
2023/04/27 04:18:51;;;;;;;;;;;;;;;10.91;95.56;101913.25;5053593;28;19917;-56
2023/04/27 04:21:18;;;;;;;;;;;;;;;11.08;94.83;101918.56;5036451;28;19949;-54
2023/04/27 04:23:44;;;;;;;;;;;;;;;11.10;94.52;101913.88;5052856;28;19940;-52
2023/04/27 04:26:10;;;;;;;;;;;;;;;11.05;94.70;101917.06;5030859;28;20014;-54
2023/04/27 04:28:37;;;;;;;;;;;;;;;10.96;96.21;101916.22;5033780;28;19917;-50
2023/04/27 04:31:04;;;;;;;;;;;;;;;10.80;97.74;101917.13;5053190;28;19917;-49
2023/04/27 04:33:30;;;;;;;;;;;;;;;10.97;97.97;101925.94;5050471;28;19997;-51
2023/04/27 04:35:56;;;;;;;;;;;;;;;11.05;96.79;101925.09;5036041;28;19917;-50
2023/04/27 04:38:22;;;;;;;;;;;;;;;11.14;95.47;101920.53;5035228;28;19917;-54
2023/04/27 04:40:50;;;;;;;;;;;;;;;11.25;94.25;101920.16;5052898;28;19934;-52
2023/04/27 04:43:15;;;;;;;;;;;;;;;11.22;94.63;101920.50;5052518;28;19917;-53
2023/04/27 04:45:41;;;;;;;;;;;;;;;11.28;94.16;101930.50;5035033;28;19924;-54
2023/04/27 04:48:07;;;;;;;;;;;;;;;11.30;93.68;101917.81;5051592;28;19988;-52
2023/04/27 04:50:33;;;;;;;;;;;;;;;11.24;94.24;101931.88;5030900;28;19923;-47
2023/04/27 04:52:59;;;;;;;;;;;;;;;11.28;93.55;101927.84;5041597;28;19948;-53
2023/04/27 04:55:26;;;;;;;;;;;;;;;11.31;93.48;101932.03;5071818;28;19932;-50
2023/04/27 04:57:51;;;;;;;;;;;;;;;11.36;93.29;101944.91;5072147;28;19923;-49
2023/04/27 05:00:17;;;;;;;;;;;;;;;11.43;92.52;101940.50;5055023;28;19920;-54
2023/04/27 05:02:42;;;;;;;;;;;;;;;11.39;92.20;101942.69;5072207;28;19955;-52
2023/04/27 05:05:08;;;;;;;;;;;;;;;11.41;91.94;101946.03;5072891;28;19912;-52
2023/04/27 05:07:33;;;;;;;;;;;;;;;11.47;91.83;101948.03;5073199;28;19917;-54
2023/04/27 05:09:59;;;;;;;;;;;;;;;11.51;91.40;101945.81;5072917;28;19920;-50
2023/04/27 05:12:25;;;;;;;;;;;;;;;11.47;91.57;101947.19;5072863;28;19917;-53
2023/04/27 05:14:51;;;;;;;;;;;;;;;11.45;91.32;101947.38;5072936;28;20481;-54
2023/04/27 05:17:16;;;;;;;;;;;;;;;11.56;90.82;101954.19;5072862;28;19924;-48
2023/04/27 05:19:41;;;;;;;;;;;;;;;11.61;90.53;101950.97;5072608;28;19995;-51
2023/04/27 05:22:06;;;;;;;;;;;;;;;11.66;90.14;101947.78;5074662;28;19928;-49
2023/04/27 05:24:32;;;;;;;;;;;;;;;11.71;90.08;101956.09;5076679;28;19916;-52
2023/04/27 05:26:57;;;;;;;;;;;;;;;11.72;90.11;101950.59;5076614;28;19924;-49
2023/04/27 05:29:23;;;;;;;;;;;;;;;11.78;90.15;101946.38;5076533;28;19916;-53
2023/04/27 05:31:49;;;;;;;;;;;;;;;11.83;88.98;101960.06;5076612;28;19948;-50
2023/04/27 05:34:15;;;;;;;;;;;;;;;11.84;89.36;101958.22;5076382;28;19932;-52
2023/04/27 05:36:40;;;;;;;;;;;;;;;11.91;88.84;101954.66;5076539;28;19939;-52
2023/04/27 05:39:06;;;;;;;;;;;;;;;11.87;88.57;101958.72;5076124;28;19920;-49
2023/04/27 05:41:31;;;;;;;;;;;;;;;11.94;88.41;101964.22;5076470;28;19920;-49
2023/04/27 05:43:56;;;;;;;;;;;;;;;11.97;88.39;101954.97;5076191;28;19967;-50
2023/04/27 05:46:22;;;;;;;;;;;;;;;11.84;87.85;101961.75;5076341;28;20036;-51
2023/04/27 05:48:47;;;;;;;;;;;;;;;12.13;86.01;101957.56;5076302;28;19923;-54
2023/04/27 05:51:13;;;;;;;;;;;;;;;12.02;85.59;101963.34;5076402;28;20683;-51
2023/04/27 05:53:39;;;;;;;;;;;;;;;12.09;85.63;101958.94;5075901;28;19921;-51
2023/04/27 05:56:05;;;;;;;;;;;;;;;12.24;85.06;101963.53;5076145;28;19968;-53
2023/04/27 05:58:32;;;;;;;;;;;;;;;11.99;85.75;101953.78;5075992;28;19917;-50
2023/04/27 06:00:58;;;;;;;;;;;;;;;12.13;86.07;101959.44;5076108;28;19932;-53
2023/04/27 06:03:24;;;;;;;;;;;;;;;12.21;85.58;101950.47;5076154;28;19984;-55
2023/04/27 06:05:54;;;;;;;;;;;;;;;12.11;86.38;101946.19;5075841;28;19921;-49
2023/04/27 06:08:19;;;;;;;;;;;;;;;12.09;86.47;101950.06;5076097;28;19961;-49
2023/04/27 06:10:44;;;;;;;;;;;;;;;12.14;86.41;101950.38;5075813;28;19939;-52
2023/04/27 06:13:10;;;;;;;;;;;;;;;11.98;87.21;101948.56;5075712;28;19916;-52
2023/04/27 06:15:35;;;;;;;;;;;;;;;11.83;87.33;101960.06;5075433;28;19916;-52
2023/04/27 06:18:01;;;;;;;;;;;;;;;12.28;86.02;101956.81;5075488;28;19925;-52
2023/04/27 06:20:26;;;;;;;;;;;;;;;12.42;84.37;101961.38;5075667;28;19920;-49
2023/04/27 06:22:52;;;;;;;;;;;;;;;12.40;84.53;101955.34;5075486;28;19929;-55
2023/04/27 06:25:17;;;;;;;;;;;;;;;12.69;83.38;101959.16;5075332;28;19917;-51
2023/04/27 06:27:42;;;;;;;;;;;;;;;12.50;83.39;101965.03;5075537;28;20291;-50
2023/04/27 06:30:09;;;;;;;;;;;;;;;12.68;83.09;101970.88;5075488;28;19924;-51
2023/04/27 06:32:35;;;;;;;;;;;;;;;12.34;83.62;101966.81;5074556;28;19947;-51
2023/04/27 06:35:00;;;;;;;;;;;;;;;12.51;82.70;101972.06;5075249;28;19921;-53
2023/04/27 06:37:26;;;;;;;;;;;;;;;12.89;81.16;101963.97;5075202;28;19917;-56
2023/04/27 06:39:52;;;;;;;;;;;;;;;13.09;80.17;101968.81;5074472;28;19927;-51
2023/04/27 06:42:17;;;;;;;;;;;;;;;12.90;80.04;101971.00;5075217;28;19917;-51
2023/04/27 06:44:43;;;;;;;;;;;;;;;13.27;79.13;101966.59;5075118;28;20051;-52
2023/04/27 06:47:08;;;;;;;;;;;;;;;13.07;79.39;101963.63;5074642;28;19925;-53
2023/04/27 06:49:34;;;;;;;;;;;;;;;13.31;78.14;101959.81;5074989;28;19925;-54
2023/04/27 06:52:01;;;;;;;;;;;;;;;13.30;77.92;101958.16;5075075;28;19964;-52
2023/04/27 06:54:26;;;;;;;;;;;;;;;13.23;77.55;101962.63;5075058;28;19982;-50
2023/04/27 06:56:53;;;;;;;;;;;;;;;13.17;77.49;101966.88;5074826;28;19917;-51
2023/04/27 06:59:18;;;;;;;;;;;;;;;13.67;77.05;101962.78;5074805;28;19920;-51
2023/04/27 07:01:45;;;;;;;;;;;;;;;13.48;77.63;101965.84;5074906;28;19924;-54
2023/04/27 07:04:10;;;;;;;;;;;;;;;13.62;77.63;101966.88;5074064;28;19988;-55
2023/04/27 07:06:36;;;;;;;;;;;;;;;13.71;76.57;101956.81;5074467;28;19940;-55
2023/04/27 07:09:04;;;;;;;;;;;;;;;14.14;74.85;101966.81;5074423;28;19979;-49
2023/04/27 07:11:30;;;;;;;;;;;;;;;14.27;74.47;101965.28;5074678;28;19916;-54
2023/04/27 07:13:56;;;;;;;;;;;;;;;14.46;73.92;101975.38;5074805;28;19939;-50
2023/04/27 07:16:21;;;;;;;;;;;;;;;14.20;74.41;101973.31;5074628;28;19944;-51
2023/04/27 07:18:47;;;;;;;;;;;;;;;14.69;73.17;101977.03;5074306;28;19924;-54
2023/04/27 07:21:12;;;;;;;;;;;;;;;14.47;71.13;101974.34;5074395;28;19996;-55
2023/04/27 07:23:39;;;;;;;;;;;;;;;14.58;69.45;101973.00;5074392;28;19975;-55
2023/04/27 07:26:06;;;;;;;;;;;;;;;14.56;66.80;101980.44;5074353;28;19988;-51
2023/04/27 07:28:31;;;;;;;;;;;;;;;14.78;66.06;101983.13;5074030;28;19917;-49
2023/04/27 07:30:57;;;;;;;;;;;;;;;15.17;64.45;101973.66;5074348;28;19929;-52
2023/04/27 07:33:23;;;;;;;;;;;;;;;15.13;64.61;101977.78;5074197;28;19917;-55
2023/04/27 07:35:49;;;;;;;;;;;;;;;14.90;63.73;101978.03;5074162;28;19920;-51
2023/04/27 07:38:16;;;;;;;;;;;;;;;15.32;63.22;101970.00;5072068;28;19912;-53
2023/04/27 07:40:41;;;;;;;;;;;;;;;14.93;61.92;101983.03;5073936;28;19927;-51
2023/04/27 07:43:08;;;;;;;;;;;;;;;15.20;60.83;101969.72;5074151;28;19917;-54
2023/04/27 07:45:36;;;;;;;;;;;;;;;15.35;61.30;101972.31;5073670;28;19917;-52
2023/04/27 07:48:03;;;;;;;;;;;;;;;14.85;63.10;101972.41;5073879;28;19916;-51
2023/04/27 07:50:28;;;;;;;;;;;;;;;15.94;61.96;101975.47;5073863;28;19982;-55
2023/04/27 07:52:55;;;;;;;;;;;;;;;15.70;61.09;101972.25;5069839;28;19925;-57
2023/04/27 07:55:22;;;;;;;;;;;;;;;15.94;60.51;101975.47;5053822;28;19925;-54
2023/04/27 07:57:48;;;;;;;;;;;;;;;15.89;60.16;101977.94;5053875;28;19917;-56
2023/04/27 08:00:14;;;;;;;;;;;;;;;16.39;58.03;101987.56;5053238;28;19924;-57
2023/04/27 08:02:40;;;;;;;;;;;;;;;16.03;56.85;101984.19;5053706;28;19944;-52
2023/04/27 08:05:06;;;;;;;;;;;;;;;15.76;55.55;101994.88;5053474;28;19924;-50
2023/04/27 08:07:32;;;;;;;;;;;;;;;15.83;56.47;101989.50;5053852;28;19917;-52
2023/04/27 08:09:58;;;;;;;;;;;;;;;15.97;56.43;101985.03;5053409;28;19917;-54
2023/04/27 08:12:24;;;;;;;;;;;;;;;16.51;56.50;101987.78;5053050;28;19932;-53
2023/04/27 08:14:49;;;;;;;;;;;;;;;16.41;55.41;101993.59;5052253;28;20059;-55
2023/04/27 08:17:17;;;;;;;;;;;;;;;16.86;54.74;101993.00;5051946;28;19917;-54
2023/04/27 08:19:42;;;;;;;;;;;;;;;17.00;53.83;101994.66;5053084;28;19921;-50
2023/04/27 08:22:08;;;;;;;;;;;;;;;16.41;54.96;101991.75;5051360;28;19940;-53
2023/04/27 08:24:33;;;;;;;;;;;;;;;16.89;54.41;101993.38;5052980;28;19940;-53
2023/04/27 08:26:58;;;;;;;;;;;;;;;17.80;53.32;101990.03;5053450;28;19921;-55
2023/04/27 08:29:24;;;;;;;;;;;;;;;17.48;53.45;101984.53;5053516;28;19917;-54
2023/04/27 08:31:50;;;;;;;;;;;;;;;18.17;53.71;101986.72;5053432;28;19917;-54
2023/04/27 08:34:16;;;;;;;;;;;;;;;18.27;52.70;101991.66;5053340;28;19972;-55
2023/04/27 08:36:42;;;;;;;;;;;;;;;17.77;52.15;101982.34;5053283;28;19917;-54
2023/04/27 08:39:07;;;;;;;;;;;;;;;16.95;53.33;101975.50;5053174;28;20001;-54
2023/04/27 08:41:33;;;;;;;;;;;;;;;16.84;52.25;101976.13;5053049;28;19953;-55
2023/04/27 08:43:59;;;;;;;;;;;;;;;16.94;52.85;101971.16;5053527;28;19917;-56
2023/04/27 08:46:27;;;;;;;;;;;;;;;16.68;53.40;101975.53;5036221;28;19955;-56
2023/04/27 08:48:53;;;;;;;;;;;;;;;17.08;52.92;101963.06;5035500;28;19945;-54
2023/04/27 08:51:18;;;;;;;;;;;;;;;17.37;52.57;101960.88;5052821;28;19928;-55
2023/04/27 08:53:49;;;;;;;;;;;;;;;18.33;51.72;101966.41;5063837;28;19931;-57
2023/04/27 08:56:14;;;;;;;;;;;;;;;19.08;51.56;101974.72;5073871;28;19916;-56
2023/04/27 08:58:40;;;;;;;;;;;;;;;19.34;49.46;101979.84;5077496;28;19925;-56
2023/04/27 09:01:06;;;;;;;;;;;;;;;19.44;49.44;101983.91;5077249;28;19921;-57
2023/04/27 09:03:33;;;;;;;;;;;;;;;19.46;47.76;101984.50;5077442;28;19916;-54
2023/04/27 09:06:02;;;;;;;;;;;;;;;19.26;47.86;101985.56;5075055;28;19917;-56
2023/04/27 09:08:28;;;;;;;;;;;;;;;19.87;46.92;101974.81;5077401;28;19916;-57
2023/04/27 09:10:56;;;;;;;;;;;;;;;19.98;45.29;101973.22;5077206;28;19917;-55
2023/04/27 09:13:21;;;;;;;;;;;;;;;20.07;46.18;101971.00;5077139;28;19948;-53
2023/04/27 09:15:47;;;;;;;;;;;;;;;20.02;45.76;101968.97;5077304;28;19923;-56
2023/04/27 09:18:17;;;;;;;;;;;;;;;20.56;45.42;101972.75;5074876;28;19921;-57
2023/04/27 09:20:43;;;;;;;;;;;;;;;20.82;44.31;101974.16;5074862;28;19924;-53
2023/04/27 09:23:08;;;;;;;;;;;;;;;20.70;42.98;101973.34;5076958;28;19933;-56
2023/04/27 09:25:34;;;;;;;;;;;;;;;21.06;43.04;101972.28;5077095;28;19923;-56
2023/04/27 09:27:59;;;;;;;;;;;;;;;21.16;41.25;101976.25;5076902;28;19921;-53
2023/04/27 09:30:26;;;;;;;;;;;;;;;20.88;41.06;101975.13;5076948;28;19924;-53
2023/04/27 09:33:02;;;;;;;;;;;;;;;20.76;40.72;101966.94;5076369;28;19924;-55
2023/04/27 09:35:28;;;;;;;;;;;;;;;20.09;39.49;101970.75;5076847;28;19919;-58
2023/04/27 09:37:54;;;;;;;;;;;;;;;21.05;38.89;101975.22;5076838;28;20007;-54
2023/04/27 09:40:25;;;;;;;;;;;;;;;21.14;38.94;101965.66;5076526;28;19931;-57
2023/04/27 09:42:50;;;;;;;;;;;;;;;21.51;38.28;101964.47;5076273;28;19923;-55
2023/04/27 09:45:16;;;;;;;;;;;;;;;22.34;38.64;101965.97;5076170;28;19912;-57
2023/04/27 09:47:42;;;;;;;;;;;;;;;23.14;36.63;101971.22;5076451;28;19917;-56
2023/04/27 09:50:08;;;;;;;;;;;;;;;22.46;36.76;101966.75;5076105;28;19916;-54
2023/04/27 09:52:33;;;;;;;;;;;;;;;23.09;36.74;101973.91;5076330;28;19924;-54
2023/04/27 09:54:59;;;;;;;;;;;;;;;23.76;35.70;101968.44;5076573;28;19924;-58
2023/04/27 09:57:36;;;;;;;;;;;;;;;23.09;35.36;101967.63;5076300;28;19924;-54
2023/04/27 10:00:12;;;;;;;;;;;;;;;23.72;35.67;101964.56;5075200;28;19925;-56
2023/04/27 10:03:04;;;;;;;;;;;;;;;25.02;34.49;101964.50;5074729;28;19916;-59
2023/04/27 10:05:35;;;;;;;;;;;;;;;24.75;33.78;101961.88;5072117;28;19917;-59
2023/04/27 10:08:02;;;;;;;;;;;;;;;26.04;33.40;101973.28;5075737;28;19928;-57
2023/04/27 10:10:28;;;;;;;;;;;;;;;26.58;32.82;101971.09;5075389;28;19916;-55
2023/04/27 10:12:59;;;;;;;;;;;;;;;26.05;32.56;101960.41;5074295;28;19939;-57
2023/04/27 10:15:28;;;;;;;;;;;;;;;27.03;30.95;101965.78;5073689;28;19921;-56
2023/04/27 10:17:57;;;;;;;;;;;;;;;28.07;30.19;101967.94;5073315;28;19925;-54
2023/04/27 10:20:30;;;;;;;;;;;;;;;27.06;30.09;101975.38;5074581;28;19921;-60
2023/04/27 10:22:56;;;;;;;;;;;;;;;26.94;29.63;101972.13;5075737;28;19917;-59
2023/04/27 10:25:24;;;;;;;;;;;;;;;27.82;29.74;101974.47;5075617;28;19963;-58
2023/04/27 10:27:51;;;;;;;;;;;;;;;26.96;29.68;101976.22;5075192;28;20153;-60
2023/04/27 10:30:17;;;;;;;;;;;;;;;26.94;29.37;101967.44;5075675;28;19980;-59
2023/04/27 10:32:56;;;;;;;;;;;;;;;27.20;29.37;101976.41;5074796;28;19956;-57
2023/04/27 10:35:31;;;;;;;;;;;;;;;27.50;28.70;101973.81;5075375;28;19921;-58
2023/04/27 10:38:03;;;;;;;;;;;;;;;25.99;29.05;101970.56;5074297;28;19917;-55
2023/04/27 10:40:32;;;;;;;;;;;;;;;26.12;28.73;101963.72;5074943;28;19943;-56
2023/04/27 10:43:06;;;;;;;;;;;;;;;26.66;29.48;101966.97;5074971;28;19916;-58
2023/04/27 10:45:33;;;;;;;;;;;;;;;28.24;27.69;101963.97;5073085;28;19916;-48
2023/04/27 10:47:59;;;;;;;;;;;;;;;29.09;27.06;101963.66;5074460;28;19935;-53
2023/04/27 10:50:25;;;;;;;;;;;;;;;29.81;26.29;101970.09;5074821;28;20042;-55
2023/04/27 10:52:51;;;;;;;;;;;;;;;30.46;26.11;101963.78;5074624;28;19979;-52
2023/04/27 10:55:20;;;;;;;;;;;;;;;30.78;25.95;101966.78;5074989;28;19924;-53
2023/04/27 10:57:45;;;;;;;;;;;;;;;31.51;24.93;101968.84;5074874;28;19955;-53
2023/04/27 11:00:13;;;;;;;;;;;;;;;30.82;25.15;101962.31;5074413;28;19929;-55
2023/04/27 11:02:38;;;;;;;;;;;;;;;30.03;26.12;101966.75;5071751;28;19917;-56
2023/04/27 11:05:14;;;;;;;;;;;;;;;29.90;25.64;101955.34;5074806;28;19923;-53
2023/04/27 11:07:39;;;;;;;;;;;;;;;29.19;25.82;101953.34;5073985;28;19935;-53
2023/04/27 11:10:06;;;;;;;;;;;;;;;29.08;25.84;101948.25;5073847;28;19968;-53
2023/04/27 11:12:32;;;;;;;;;;;;;;;29.90;25.31;101952.56;5074421;28;19923;-53
2023/04/27 11:14:57;;;;;;;;;;;;;;;30.62;25.15;101944.19;5074471;28;19916;-51
2023/04/27 11:17:29;;;;;;;;;;;;;;;30.36;24.97;101943.84;5074260;28;20006;-51
2023/04/27 11:19:55;;;;;;;;;;;;;;;31.43;24.33;101942.78;5073236;28;19936;-55
2023/04/27 11:22:20;;;;;;;;;;;;;;;32.63;24.21;101937.03;5070359;28;19925;-57
2023/04/27 11:24:49;;;;;;;;;;;;;;;33.49;23.77;101939.50;5071880;28;19916;-53
2023/04/27 11:27:16;;;;;;;;;;;;;;;34.28;22.78;101929.09;5073756;28;19916;-55
2023/04/27 11:29:42;;;;;;;;;;;;;;;34.43;22.82;101938.81;5074266;28;19916;-53
2023/04/27 11:32:07;;;;;;;;;;;;;;;35.22;21.67;101932.00;5071150;28;19917;-55
2023/04/27 11:34:37;;;;;;;;;;;;;;;35.76;20.91;101922.06;5074128;28;19916;-57
2023/04/27 11:37:07;;;;;;;;;;;;;;;35.63;20.46;101918.41;5073588;28;19928;-54
2023/04/27 11:39:36;;;;;;;;;;;;;;;35.19;20.74;101920.78;5073749;28;19955;-54
2023/04/27 11:42:15;;;;;;;;;;;;;;;35.22;20.58;101923.66;5073938;28;19917;-53
2023/04/27 11:44:41;;;;;;;;;;;;;;;33.90;21.53;101916.75;5072683;28;19917;-56
2023/04/27 11:47:07;;;;;;;;;;;;;;;33.21;22.12;101909.31;5073429;28;19999;-52
2023/04/27 11:49:33;;;;;;;;;;;;;;;33.28;21.84;101913.22;5073555;28;19932;-50
2023/04/27 11:51:59;;;;;;;;;;;;;;;33.79;22.24;101909.09;5072651;28;19917;-53
2023/04/27 11:54:28;;;;;;;;;;;;;;;34.77;21.26;101905.66;5073363;28;19921;-55
2023/04/27 11:57:03;;;;;;;;;;;;;;;35.10;20.39;101906.94;5073556;28;19980;-55
2023/04/27 11:59:29;;;;;;;;;;;;;;;34.91;20.79;101899.84;5073514;28;19931;-52
2023/04/27 12:01:54;;;;;;;;;;;;;;;35.13;20.28;101897.91;5072575;28;19917;-55
2023/04/27 12:04:20;;;;;;;;;;;;;;;34.69;20.08;101898.19;5073255;28;19929;-56
2023/04/27 12:06:45;;;;;;;;;;;;;;;34.50;19.91;101896.69;5073631;28;19913;-54
2023/04/27 12:09:11;;;;;;;;;;;;;;;34.09;19.94;101896.16;5072976;28;19951;-56
2023/04/27 12:11:37;;;;;;;;;;;;;;;34.52;19.60;101893.56;5073387;28;19923;-53
2023/04/27 12:14:03;;;;;;;;;;;;;;;35.06;19.72;101912.34;5073016;28;19917;-52
2023/04/27 12:16:28;;;;;;;;;;;;;;;34.97;19.99;101904.06;5073221;28;19925;-55
2023/04/27 12:18:53;;;;;;;;;;;;;;;34.69;20.35;101892.63;5073249;28;19979;-51
2023/04/27 12:21:19;;;;;;;;;;;;;;;34.82;20.42;101887.97;5073071;28;19921;-54
2023/04/27 12:23:45;;;;;;;;;;;;;;;34.22;20.91;101890.75;5072884;28;19939;-54
2023/04/27 12:26:11;;;;;;;;;;;;;;;35.01;19.54;101896.69;5070732;28;19942;-57
2023/04/27 12:28:36;;;;;;;;;;;;;;;35.88;18.74;101894.25;5073052;28;20063;-55
2023/04/27 12:31:03;;;;;;;;;;;;;;;35.98;19.39;101893.00;5072633;28;19980;-56